createdAt,value
2022-11-30T00:00:56.972Z,6.30
2022-11-30T00:03:25.463Z,6.30
2022-11-30T00:05:54.034Z,6.30
2022-11-30T00:08:22.185Z,6.30
2022-11-30T00:10:50.226Z,6.30
2022-11-30T00:13:18.338Z,6.20
2022-11-30T00:15:47.796Z,6.20
2022-11-30T00:18:17.751Z,6.20
2022-11-30T00:20:46.010Z,6.30
2022-11-30T00:23:14.076Z,6.20
2022-11-30T00:25:42.225Z,6.20
2022-11-30T00:28:10.564Z,6.20
2022-11-30T00:30:38.722Z,6.20
2022-11-30T00:33:08.208Z,6.20
2022-11-30T00:35:36.316Z,6.20
2022-11-30T00:38:04.656Z,6.20
2022-11-30T00:40:32.655Z,6.20
2022-11-30T00:43:00.797Z,6.20
2022-11-30T00:45:28.861Z,6.20
2022-11-30T00:47:56.932Z,6.20
2022-11-30T00:50:26.340Z,6.20
2022-11-30T00:52:54.377Z,6.20
2022-11-30T00:55:22.533Z,6.20
2022-11-30T00:57:51.136Z,6.20
2022-11-30T01:00:19.865Z,6.20
2022-11-30T01:02:48.036Z,6.20
2022-11-30T01:05:16.344Z,6.10
2022-11-30T01:07:45.893Z,6.20
2022-11-30T01:10:13.980Z,6.10
2022-11-30T01:12:42.121Z,6.20
2022-11-30T01:15:11.203Z,6.20
2022-11-30T01:17:39.266Z,6.10
2022-11-30T01:20:09.064Z,6.10
2022-11-30T01:22:37.211Z,6.10
2022-11-30T01:25:07.731Z,6.10
2022-11-30T01:27:36.061Z,6.10
2022-11-30T01:30:05.282Z,6.10
2022-11-30T01:32:33.454Z,6.10
2022-11-30T01:35:01.525Z,6.00
2022-11-30T01:37:30.861Z,6.00
2022-11-30T01:39:58.950Z,6.00
2022-11-30T01:42:28.376Z,6.00
2022-11-30T01:44:57.929Z,6.00
2022-11-30T01:47:29.811Z,6.00
2022-11-30T01:50:04.236Z,6.00
2022-11-30T01:52:35.351Z,6.00
2022-11-30T01:55:12.506Z,5.90
2022-11-30T01:57:45.887Z,6.00
2022-11-30T02:00:16.206Z,6.00
2022-11-30T02:02:53.717Z,6.00
2022-11-30T02:05:22.641Z,6.00
2022-11-30T02:07:50.866Z,5.90
2022-11-30T02:10:22.815Z,5.90
2022-11-30T02:13:20.509Z,5.90
2022-11-30T02:15:57.870Z,5.90
2022-11-30T02:18:33.437Z,5.90
2022-11-30T02:21:09.188Z,5.90
2022-11-30T02:24:10.320Z,5.90
2022-11-30T02:26:55.683Z,5.90
2022-11-30T02:29:29.393Z,5.80
2022-11-30T02:32:05.215Z,5.80
2022-11-30T02:34:35.196Z,5.90
2022-11-30T02:37:04.772Z,5.90
2022-11-30T02:39:35.394Z,5.90
2022-11-30T02:42:03.552Z,5.90
2022-11-30T02:44:33.562Z,5.80
2022-11-30T02:47:13.189Z,5.80
2022-11-30T02:49:49.581Z,5.80
2022-11-30T02:52:20.882Z,5.80
2022-11-30T02:54:49.380Z,5.80
2022-11-30T02:57:17.633Z,5.80
2022-11-30T02:59:49.396Z,5.80
2022-11-30T03:02:17.518Z,5.80
2022-11-30T03:04:45.912Z,5.80
2022-11-30T03:07:14.263Z,5.80
2022-11-30T03:09:42.364Z,5.80
2022-11-30T03:12:10.604Z,5.80
2022-11-30T03:14:38.756Z,5.80
2022-11-30T03:17:08.373Z,5.80
2022-11-30T03:19:36.475Z,5.80
2022-11-30T03:22:04.511Z,5.80
2022-11-30T03:24:32.611Z,5.80
2022-11-30T03:27:01.433Z,5.80
2022-11-30T03:29:29.521Z,5.80
2022-11-30T03:31:57.548Z,5.80
2022-11-30T03:34:27.623Z,5.70
2022-11-30T03:36:56.370Z,5.80
2022-11-30T03:39:24.578Z,5.80
2022-11-30T03:41:52.754Z,5.80
2022-11-30T03:44:20.977Z,5.70
2022-11-30T03:46:49.141Z,5.70
2022-11-30T03:49:17.219Z,5.70
2022-11-30T03:51:46.678Z,5.70
2022-11-30T03:54:14.786Z,5.70
2022-11-30T03:56:42.830Z,5.70
2022-11-30T03:59:10.858Z,5.70
2022-11-30T04:01:40.957Z,5.70
2022-11-30T04:04:10.380Z,5.70
2022-11-30T04:06:38.436Z,5.70
2022-11-30T04:09:08.078Z,5.70
2022-11-30T04:11:36.948Z,5.70
2022-11-30T04:14:05.229Z,5.70
2022-11-30T04:16:33.458Z,5.70
2022-11-30T04:19:02.367Z,5.70
2022-11-30T04:21:30.429Z,5.70
2022-11-30T04:23:58.541Z,5.70
2022-11-30T04:26:28.011Z,5.80
2022-11-30T04:28:56.057Z,5.70
2022-11-30T04:31:24.082Z,5.70
2022-11-30T04:33:54.236Z,5.70
2022-11-30T04:36:22.522Z,5.70
2022-11-30T04:38:50.669Z,5.70
2022-11-30T04:41:18.750Z,5.80
2022-11-30T04:43:48.204Z,5.70
2022-11-30T04:46:16.287Z,5.70
2022-11-30T04:48:44.344Z,5.70
2022-11-30T04:51:15.105Z,5.80
2022-11-30T04:53:43.159Z,5.80
2022-11-30T04:56:12.831Z,5.70
2022-11-30T04:58:40.986Z,5.80
2022-11-30T05:01:10.515Z,5.70
2022-11-30T05:03:38.620Z,5.80
2022-11-30T05:06:07.387Z,5.80
2022-11-30T05:08:35.456Z,5.70
2022-11-30T05:11:03.649Z,5.70
2022-11-30T05:13:31.790Z,5.80
2022-11-30T05:15:59.848Z,5.80
2022-11-30T05:18:31.596Z,5.70
2022-11-30T05:20:59.723Z,5.80
2022-11-30T05:23:27.822Z,5.70
2022-11-30T05:25:56.004Z,5.70
2022-11-30T05:28:24.076Z,5.80
2022-11-30T05:30:52.139Z,5.70
2022-11-30T05:33:20.208Z,5.70
2022-11-30T05:35:49.645Z,5.80
2022-11-30T05:38:19.447Z,5.80
2022-11-30T05:40:47.556Z,5.70
2022-11-30T05:43:15.669Z,5.70
2022-11-30T05:45:43.708Z,5.70
2022-11-30T05:48:11.975Z,5.70
2022-11-30T05:50:40.297Z,5.70
2022-11-30T05:53:09.810Z,5.70
2022-11-30T05:55:38.099Z,5.70
2022-11-30T05:58:06.334Z,5.70
2022-11-30T06:00:34.709Z,5.70
2022-11-30T06:03:04.140Z,5.70
2022-11-30T06:05:35.818Z,5.70
2022-11-30T06:08:04.116Z,5.70
2022-11-30T06:10:33.728Z,5.70
2022-11-30T06:13:08.039Z,5.70
2022-11-30T06:15:37.582Z,5.70
2022-11-30T06:18:06.579Z,5.70
2022-11-30T06:20:34.866Z,5.70
2022-11-30T06:23:03.048Z,5.70
2022-11-30T06:25:31.285Z,5.70
2022-11-30T06:28:00.812Z,5.60
2022-11-30T06:30:29.012Z,5.60
2022-11-30T06:32:57.189Z,5.60
2022-11-30T06:35:25.856Z,5.60
2022-11-30T06:37:54.753Z,5.60
2022-11-30T06:40:23.104Z,5.60
2022-11-30T06:42:51.357Z,5.60
2022-11-30T06:45:20.816Z,5.60
2022-11-30T06:47:48.988Z,5.60
2022-11-30T06:50:17.256Z,5.60
2022-11-30T06:52:45.278Z,5.60
2022-11-30T06:55:13.316Z,5.60
2022-11-30T06:57:41.357Z,5.60
2022-11-30T07:00:12.575Z,5.60
2022-11-30T07:02:42.058Z,5.60
2022-11-30T07:05:10.450Z,5.60
2022-11-30T07:07:38.955Z,5.60
2022-11-30T07:10:08.204Z,5.60
2022-11-30T07:12:36.914Z,5.60
2022-11-30T07:15:05.723Z,5.60
2022-11-30T07:17:33.805Z,5.60
2022-11-30T07:20:03.335Z,5.60
2022-11-30T07:22:31.454Z,5.60
2022-11-30T07:25:16.958Z,5.60
2022-11-30T07:27:45.076Z,5.60
2022-11-30T07:30:14.135Z,5.60
2022-11-30T07:32:42.273Z,5.60
2022-11-30T07:35:11.774Z,5.60
2022-11-30T07:37:39.997Z,5.60
2022-11-30T07:40:09.527Z,5.60
2022-11-30T07:42:37.634Z,5.60
2022-11-30T07:45:06.509Z,5.60
2022-11-30T07:47:34.637Z,5.60
2022-11-30T07:50:02.764Z,5.60
2022-11-30T07:52:32.721Z,5.60
2022-11-30T07:55:02.754Z,5.60
2022-11-30T07:57:30.828Z,5.60
2022-11-30T07:59:58.920Z,5.60
2022-11-30T08:02:27.119Z,5.60
2022-11-30T08:04:58.292Z,5.50
2022-11-30T08:07:26.537Z,5.60
2022-11-30T08:09:56.101Z,5.60
2022-11-30T08:12:24.189Z,5.60
2022-11-30T08:15:18.707Z,5.60
2022-11-30T08:17:41.047Z,5.60
2022-11-30T08:20:11.690Z,5.60
2022-11-30T08:22:39.780Z,5.60
2022-11-30T08:25:10.485Z,5.60
2022-11-30T08:27:38.568Z,5.60
2022-11-30T08:30:09.074Z,5.60
2022-11-30T08:32:37.201Z,5.60
2022-11-30T08:35:05.975Z,5.60
2022-11-30T08:37:37.755Z,5.60
2022-11-30T08:40:07.151Z,5.60
2022-11-30T08:42:36.600Z,5.60
2022-11-30T08:45:05.100Z,5.60
2022-11-30T08:47:34.255Z,5.60
2022-11-30T08:50:02.348Z,5.70
2022-11-30T08:52:30.492Z,5.70
2022-11-30T08:54:58.549Z,5.60
2022-11-30T08:57:26.936Z,5.70
2022-11-30T08:59:58.345Z,5.70
2022-11-30T09:02:27.579Z,5.70
2022-11-30T09:04:55.642Z,5.70
2022-11-30T09:07:23.780Z,5.70
2022-11-30T09:09:51.880Z,5.70
2022-11-30T09:12:19.976Z,5.70
2022-11-30T09:14:55.883Z,5.70
2022-11-30T09:17:27.097Z,5.70
2022-11-30T09:19:55.913Z,5.70
2022-11-30T09:22:24.439Z,5.70
2022-11-30T09:24:52.604Z,5.70
2022-11-30T09:27:20.933Z,5.70
2022-11-30T09:29:48.993Z,5.70
2022-11-30T09:32:17.072Z,5.70
2022-11-30T09:34:46.725Z,5.80
2022-11-30T09:37:14.993Z,5.80
2022-11-30T09:39:43.046Z,5.80
2022-11-30T09:42:28.160Z,5.80
2022-11-30T09:45:04.407Z,5.80
2022-11-30T09:47:53.458Z,5.80
2022-11-30T09:50:25.980Z,5.80
2022-11-30T09:52:57.656Z,5.80
2022-11-30T09:55:28.658Z,5.80
2022-11-30T09:57:59.657Z,5.80
2022-11-30T10:00:28.049Z,5.80
2022-11-30T10:02:58.007Z,5.80
2022-11-30T10:05:35.371Z,5.80
2022-11-30T10:08:27.438Z,5.80
2022-11-30T10:11:10.439Z,5.80
2022-11-30T10:13:52.349Z,5.90
2022-11-30T10:16:27.743Z,5.80
2022-11-30T10:19:05.545Z,5.80
2022-11-30T10:21:51.682Z,5.90
2022-11-30T10:24:31.352Z,5.90
2022-11-30T10:27:02.813Z,5.90
2022-11-30T10:29:35.283Z,5.90
2022-11-30T10:32:14.884Z,5.90
2022-11-30T10:34:47.480Z,5.90
2022-11-30T10:37:21.337Z,5.90
2022-11-30T10:39:59.294Z,5.90
2022-11-30T10:42:34.700Z,5.90
2022-11-30T10:45:09.424Z,5.90
2022-11-30T10:47:41.226Z,6.00
2022-11-30T10:50:14.807Z,6.00
2022-11-30T10:52:47.624Z,6.00
2022-11-30T10:55:19.950Z,6.00
2022-11-30T10:57:50.259Z,6.00
2022-11-30T11:00:19.091Z,6.00
2022-11-30T11:02:48.718Z,6.00
2022-11-30T11:05:21.370Z,6.00
2022-11-30T11:07:55.126Z,6.00
2022-11-30T11:10:29.514Z,6.00
2022-11-30T11:12:58.155Z,6.00
2022-11-30T11:15:28.061Z,6.10
2022-11-30T11:18:22.469Z,6.00
2022-11-30T11:21:05.941Z,6.10
2022-11-30T11:23:38.858Z,6.00
2022-11-30T11:26:08.419Z,6.00
2022-11-30T11:28:38.637Z,6.00
2022-11-30T11:31:19.739Z,6.10
2022-11-30T11:33:54.039Z,6.10
2022-11-30T11:36:28.441Z,6.10
2022-11-30T11:38:58.899Z,6.00
2022-11-30T11:41:29.983Z,6.30
2022-11-30T11:44:02.676Z,6.10
2022-11-30T11:46:32.423Z,6.10
2022-11-30T11:49:03.477Z,6.10
2022-11-30T11:51:34.278Z,6.10
2022-11-30T11:54:12.251Z,6.20
2022-11-30T11:56:40.880Z,6.10
2022-11-30T11:59:16.720Z,6.20
2022-11-30T12:01:56.494Z,6.20
2022-11-30T12:04:45.363Z,6.20
2022-11-30T12:07:28.637Z,6.20
2022-11-30T12:10:28.189Z,6.20
2022-11-30T12:12:56.326Z,6.20
2022-11-30T12:15:29.418Z,6.20
2022-11-30T12:18:03.372Z,6.20
2022-11-30T12:20:44.175Z,6.20
2022-11-30T12:23:38.844Z,6.20
2022-11-30T12:26:19.832Z,6.20
2022-11-30T12:29:05.287Z,6.30
2022-11-30T12:31:42.825Z,6.20
2022-11-30T12:34:19.934Z,6.30
2022-11-30T12:36:57.250Z,6.20
2022-11-30T12:39:37.355Z,6.20
2022-11-30T12:42:11.546Z,6.20
2022-11-30T12:44:50.159Z,6.20
2022-11-30T12:47:38.360Z,6.20
2022-11-30T12:50:24.125Z,6.20
2022-11-30T12:52:59.731Z,6.20
2022-11-30T12:55:37.659Z,6.20
2022-11-30T12:58:17.330Z,6.30
2022-11-30T13:01:00.272Z,6.20
2022-11-30T13:03:51.419Z,6.30
2022-11-30T13:06:24.341Z,6.30
2022-11-30T13:09:01.217Z,6.30
2022-11-30T13:11:35.044Z,6.20
2022-11-30T13:14:10.316Z,6.20
2022-11-30T13:16:39.276Z,6.20
2022-11-30T13:19:20.208Z,6.20
2022-11-30T13:21:54.663Z,6.20
2022-11-30T13:24:28.972Z,6.20
2022-11-30T13:27:01.752Z,6.20
2022-11-30T13:30:03.055Z,6.20
2022-11-30T13:32:57.328Z,6.20
2022-11-30T13:35:42.164Z,6.30
2022-11-30T13:38:36.252Z,6.20
2022-11-30T13:41:07.327Z,6.20
2022-11-30T13:43:41.507Z,6.20
2022-11-30T13:46:19.891Z,6.20
2022-11-30T13:48:49.130Z,6.30
2022-11-30T13:51:36.148Z,6.20
2022-11-30T13:54:36.900Z,6.20
2022-11-30T13:57:05.759Z,6.20
2022-11-30T13:59:45.670Z,6.20
2022-11-30T14:05:45.258Z,6.20
2022-11-30T14:08:39.490Z,6.20
2022-11-30T14:11:37.002Z,6.20
2022-11-30T14:14:45.614Z,6.30
2022-11-30T14:17:17.787Z,6.30
2022-11-30T14:19:47.449Z,6.40
2022-11-30T14:22:17.305Z,6.20
2022-11-30T14:24:47.947Z,6.20
2022-11-30T14:27:19.398Z,6.30
2022-11-30T14:29:53.287Z,6.30
2022-11-30T14:32:31.249Z,6.30
2022-11-30T14:35:08.063Z,6.20
2022-11-30T14:37:44.062Z,6.30
2022-11-30T14:40:19.025Z,6.30
2022-11-30T14:42:53.069Z,6.30
2022-11-30T14:45:23.305Z,6.20
2022-11-30T14:48:04.789Z,6.30
2022-11-30T14:50:33.401Z,6.30
2022-11-30T14:53:15.459Z,6.20
2022-11-30T14:55:50.443Z,6.30
2022-11-30T14:58:26.165Z,6.30
2022-11-30T15:00:54.945Z,6.20
2022-11-30T15:03:27.336Z,6.20
2022-11-30T15:05:57.394Z,6.20
2022-11-30T15:08:31.066Z,6.20
2022-11-30T15:11:05.684Z,6.20
2022-11-30T15:13:34.707Z,6.20
2022-11-30T15:16:02.762Z,6.20
2022-11-30T15:18:30.881Z,6.20
2022-11-30T15:21:02.404Z,6.20
2022-11-30T15:23:35.316Z,6.20
2022-11-30T15:26:15.071Z,6.20
2022-11-30T15:28:45.714Z,6.20
2022-11-30T15:31:16.990Z,6.20
2022-11-30T15:33:47.488Z,6.20
2022-11-30T15:36:31.870Z,6.20
2022-11-30T15:39:04.069Z,6.20
2022-11-30T15:41:34.420Z,6.20
2022-11-30T15:44:03.183Z,6.20
2022-11-30T15:46:34.069Z,6.20
2022-11-30T15:49:17.450Z,6.20
2022-11-30T15:51:47.635Z,6.20
2022-11-30T15:54:17.076Z,6.20
2022-11-30T15:56:58.278Z,6.10
2022-11-30T15:59:28.935Z,6.20
2022-11-30T16:02:08.506Z,6.20
2022-11-30T16:05:22.555Z,6.10
2022-11-30T16:07:53.435Z,6.10
2022-11-30T16:10:25.718Z,6.10
2022-11-30T16:12:55.322Z,6.10
2022-11-30T16:15:25.888Z,6.20
2022-11-30T16:17:57.044Z,6.10
2022-11-30T16:20:25.721Z,6.10
2022-11-30T16:22:53.756Z,6.20
2022-11-30T16:25:25.690Z,6.10
2022-11-30T16:27:54.210Z,6.10
2022-11-30T16:30:24.111Z,6.10
2022-11-30T16:32:52.798Z,6.10
2022-11-30T16:35:24.490Z,6.10
2022-11-30T16:37:53.113Z,6.10
2022-11-30T16:40:21.350Z,6.10
2022-11-30T16:42:52.175Z,6.10
2022-11-30T16:45:22.255Z,6.10
2022-11-30T16:47:51.345Z,6.10
2022-11-30T16:50:20.547Z,6.10
2022-11-30T16:52:48.745Z,6.10
2022-11-30T16:55:19.089Z,6.10
2022-11-30T16:57:47.853Z,6.10
2022-11-30T17:00:20.565Z,6.10
2022-11-30T17:02:55.385Z,6.10
2022-11-30T17:05:23.628Z,6.10
2022-11-30T17:07:52.017Z,6.10
2022-11-30T17:10:20.655Z,6.10
2022-11-30T17:12:48.867Z,6.10
2022-11-30T17:15:20.862Z,6.10
2022-11-30T17:17:49.192Z,6.10
2022-11-30T17:20:18.755Z,6.10
2022-11-30T17:22:47.182Z,6.10
2022-11-30T17:25:17.726Z,6.10
2022-11-30T17:27:46.369Z,6.10
2022-11-30T17:30:17.228Z,6.10
2022-11-30T17:32:46.658Z,6.10
2022-11-30T17:35:14.928Z,6.10
2022-11-30T17:37:43.010Z,6.10
2022-11-30T17:40:14.748Z,6.10
2022-11-30T17:42:42.967Z,6.00
2022-11-30T17:45:11.635Z,6.10
2022-11-30T17:47:39.797Z,6.00
2022-11-30T17:50:10.845Z,6.10
2022-11-30T17:52:38.922Z,6.00
2022-11-30T17:55:07.905Z,6.00
2022-11-30T17:57:38.361Z,6.00
2022-11-30T18:00:08.176Z,6.00
2022-11-30T18:02:36.380Z,6.00
2022-11-30T18:05:04.544Z,6.10
2022-11-30T18:07:34.046Z,6.00
2022-11-30T18:10:02.144Z,6.00
2022-11-30T18:12:30.264Z,6.00
2022-11-30T18:14:58.292Z,6.00
2022-11-30T18:17:26.491Z,6.00
2022-11-30T18:19:54.667Z,6.00
2022-11-30T18:22:22.758Z,6.00
2022-11-30T18:24:52.185Z,6.00
2022-11-30T18:27:20.225Z,6.00
2022-11-30T18:29:48.422Z,6.00
2022-11-30T18:32:16.470Z,6.00
2022-11-30T18:34:49.291Z,6.00
2022-11-30T18:37:17.720Z,6.00
2022-11-30T18:39:45.807Z,6.00
2022-11-30T18:42:15.202Z,6.00
2022-11-30T18:44:43.271Z,6.00
2022-11-30T18:47:11.368Z,6.00
2022-11-30T18:49:39.412Z,6.00
2022-11-30T18:52:07.440Z,6.00
2022-11-30T18:54:36.226Z,5.90
2022-11-30T18:57:04.318Z,5.90
2022-11-30T18:59:33.728Z,6.00
2022-11-30T19:02:01.951Z,6.00
2022-11-30T19:04:30.051Z,5.90
2022-11-30T19:06:58.676Z,6.00
2022-11-30T19:09:26.893Z,5.90
2022-11-30T19:11:55.707Z,6.00
2022-11-30T19:14:23.737Z,6.00
2022-11-30T19:16:53.184Z,6.00
2022-11-30T19:19:21.671Z,5.90
2022-11-30T19:21:49.732Z,5.90
2022-11-30T19:24:18.058Z,5.90
2022-11-30T19:26:46.435Z,5.90
2022-11-30T19:29:14.529Z,6.00
2022-11-30T19:31:42.583Z,6.00
2022-11-30T19:34:13.259Z,6.00
2022-11-30T19:36:42.160Z,6.00
2022-11-30T19:39:11.217Z,6.00
2022-11-30T19:41:40.190Z,6.00
2022-11-30T19:44:08.290Z,6.00
2022-11-30T19:46:36.563Z,6.00
2022-11-30T19:49:04.748Z,5.90
2022-11-30T19:51:34.229Z,5.90
2022-11-30T19:54:02.831Z,5.90
2022-11-30T19:56:34.144Z,5.90
2022-11-30T19:59:05.462Z,5.90
2022-11-30T20:01:34.788Z,5.90
2022-11-30T20:04:03.792Z,5.90
2022-11-30T20:06:35.652Z,5.90
2022-11-30T20:09:04.330Z,5.90
2022-11-30T20:11:32.670Z,5.90
2022-11-30T20:14:00.985Z,5.90
2022-11-30T20:16:29.993Z,5.90
2022-11-30T20:19:00.671Z,5.90
2022-11-30T20:21:30.809Z,5.90
2022-11-30T20:24:02.731Z,6.00
2022-11-30T20:26:32.746Z,5.90
2022-11-30T20:29:02.934Z,5.90
2022-11-30T20:31:32.376Z,5.90
2022-11-30T20:34:00.619Z,5.90
2022-11-30T20:36:29.123Z,5.90
2022-11-30T20:38:58.732Z,5.90
2022-11-30T20:41:28.767Z,5.90
2022-11-30T20:43:57.349Z,5.90
2022-11-30T20:46:28.180Z,5.90
2022-11-30T20:48:57.175Z,5.90
2022-11-30T20:51:31.337Z,5.90
2022-11-30T20:54:00.624Z,5.90
2022-11-30T20:56:30.100Z,5.90
2022-11-30T20:59:01.984Z,5.90
2022-11-30T21:01:30.200Z,5.90
2022-11-30T21:03:59.560Z,5.90
2022-11-30T21:06:27.917Z,5.90
2022-11-30T21:08:55.974Z,5.90
2022-11-30T21:11:24.195Z,5.90
2022-11-30T21:13:53.755Z,5.80
2022-11-30T21:16:27.687Z,5.80
2022-11-30T21:18:57.242Z,5.80
2022-11-30T21:21:27.471Z,5.90
2022-11-30T21:23:55.601Z,5.80
2022-11-30T21:26:25.635Z,5.80
2022-11-30T21:28:59.436Z,5.80
2022-11-30T21:31:27.647Z,5.80
2022-11-30T21:33:55.760Z,5.80
2022-11-30T21:36:24.289Z,5.80
2022-11-30T21:39:02.610Z,5.80
2022-11-30T21:41:33.262Z,5.80
2022-11-30T21:44:02.817Z,5.80
2022-11-30T21:46:31.065Z,5.80
2022-11-30T21:48:59.526Z,5.80
2022-11-30T21:51:30.242Z,5.80
2022-11-30T21:53:59.743Z,5.80
2022-11-30T21:56:29.958Z,5.80
2022-11-30T21:58:58.655Z,5.80
2022-11-30T22:01:30.533Z,5.80
2022-11-30T22:03:59.750Z,5.80
2022-11-30T22:06:30.657Z,5.80
2022-11-30T22:09:02.701Z,5.80
2022-11-30T22:11:31.851Z,5.80
2022-11-30T22:13:59.966Z,5.80
2022-11-30T22:16:35.559Z,5.80
2022-11-30T22:19:05.211Z,5.80
2022-11-30T22:21:33.653Z,5.80
2022-11-30T22:24:03.429Z,5.80
2022-11-30T22:26:33.096Z,5.80
2022-11-30T22:29:03.632Z,5.80
2022-11-30T22:31:35.518Z,5.80
2022-11-30T22:34:04.166Z,5.80
2022-11-30T22:36:34.397Z,5.80
2022-11-30T22:39:04.726Z,5.80
2022-11-30T22:41:33.545Z,5.80
2022-11-30T22:44:01.802Z,5.80
2022-11-30T22:46:33.811Z,5.80
2022-11-30T22:49:02.696Z,5.80
2022-11-30T22:51:32.098Z,5.80
2022-11-30T22:54:01.045Z,5.80
2022-11-30T22:56:31.906Z,5.80
2022-11-30T22:59:01.094Z,5.80
2022-11-30T23:01:30.897Z,5.80
2022-11-30T23:04:03.170Z,5.80
2022-11-30T23:06:31.766Z,5.80
2022-11-30T23:09:00.673Z,5.80
2022-11-30T23:11:29.785Z,5.80
2022-11-30T23:13:58.128Z,5.80
2022-11-30T23:16:26.435Z,5.80
2022-11-30T23:18:55.827Z,5.80
2022-11-30T23:21:28.927Z,5.80
2022-11-30T23:23:59.470Z,5.80
2022-11-30T23:26:30.095Z,5.80
2022-11-30T23:29:02.042Z,5.80
2022-11-30T23:31:34.305Z,5.80
2022-11-30T23:34:06.553Z,5.80
2022-11-30T23:36:36.643Z,5.80
2022-11-30T23:39:07.749Z,5.80
2022-11-30T23:41:36.237Z,5.80
2022-11-30T23:44:05.179Z,5.80
2022-11-30T23:46:33.362Z,5.80
2022-11-30T23:49:01.418Z,5.80
2022-11-30T23:51:29.879Z,5.80
2022-11-30T23:53:59.285Z,5.80
2022-11-30T23:56:27.411Z,5.80
2022-11-30T23:58:55.454Z,5.70
